Key Lake Airport
CYKJ : now visible

Airfield :











YOU CAN JOIN US ON...

 
LOGIN :

Register | Disclaimer

   EN    FR    IT 

 









Legend :    VFR   Marginal VFR   IFR   Intensive IFR   Very Intensive IFR
Visi :
Ceiling :
>= 8 km
>= 3000ft
5 to 8 km
1000 to 3000 ft
1500m to 5 km
500 to 1000 ft
800 to 1500m
200 to 500 ft
< 800m
< 200 ft
Symbols :   Thunderstorms  Fog  Heavy snow  Heavy precipitations  Wind > 20 kt






- Airport Elevation : 1679 ft
- IATA code : YKJ


CYKJ - Key Lake

CURRENT METAR :
  • 030100Z AUTO 26005KT 9SM CLR M17/M23 A3019 RMK SLP284

EXPIRED METARs :
  • 030011Z AUTO 28007KT 7SM SCT023 BKN029 M17/M21 A3018 RMK SLP277
  • 022354Z AUTO 29007KT 9SM BKN023 BKN029 M17/M21 A3017 RMK SLP273
  • 022343Z AUTO 28007KT 9SM -SN BKN023 OVC029 M16/M21 A3016 RMK SLP270
  • 022324Z AUTO 27008KT 9SM BKN021 BKN029 M16/M22 A3015 RMK SLP266

Expired Forecast.



MET'MAP, your aeronautical weather chart ! - Copyright ORBIFLY December 2007 - Disclaimer

ORBIFLY MET'MAP TEAM :

Programming & Development : Alexandra Zaïnal
Concept & original design : Baudouin d'Aumeries
Assistance for programming : Marc-Olivier Méhu
Technical & hardware support : Manuel Goepfert

Contact : metmap@orbifly.com




SOURCES & CREDITS :

   NOAA       Earth
Advisory